createdAt,value
2018-04-10T00:00:05.870Z,67.60
2018-04-10T00:01:06.494Z,68.80
2018-04-10T00:02:06.254Z,68.50
2018-04-10T00:03:05.715Z,68.50
2018-04-10T00:04:08.331Z,69.30
2018-04-10T00:05:10.898Z,69.30
2018-04-10T00:06:11.540Z,69.40
2018-04-10T00:07:06.645Z,69.30
2018-04-10T00:08:11.315Z,69.20
2018-04-10T00:09:06.184Z,69.10
2018-04-10T00:10:05.884Z,69.20
2018-04-10T00:11:08.717Z,69.40
2018-04-10T00:12:06.611Z,69.40
2018-04-10T00:13:08.624Z,69.20
2018-04-10T00:14:09.774Z,69.20
2018-04-10T00:15:06.202Z,69.20
2018-04-10T00:16:08.795Z,69.40
2018-04-10T00:17:06.451Z,69.40
2018-04-10T00:18:09.811Z,70.00
2018-04-10T00:19:06.617Z,69.90
2018-04-10T00:20:09.646Z,69.90
2018-04-10T00:21:06.138Z,69.90
2018-04-10T00:22:05.772Z,69.80
2018-04-10T00:23:06.045Z,69.90
2018-04-10T00:24:05.660Z,70.00
2018-04-10T00:25:08.388Z,69.80
2018-04-10T00:26:10.256Z,69.80
2018-04-10T00:27:17.436Z,70.00
2018-04-10T00:28:06.099Z,70.00
2018-04-10T00:29:08.410Z,69.70
2018-04-10T00:30:06.016Z,69.60
2018-04-10T00:31:10.114Z,69.60
2018-04-10T00:32:06.335Z,69.60
2018-04-10T00:33:08.522Z,69.40
2018-04-10T00:34:05.982Z,69.40
2018-04-10T00:35:06.166Z,69.30
2018-04-10T00:36:09.590Z,69.40
2018-04-10T00:37:06.259Z,69.30
2018-04-10T00:38:09.595Z,69.20
2018-04-10T00:39:06.120Z,69.20
2018-04-10T00:40:05.914Z,69.10
2018-04-10T00:41:09.177Z,69.00
2018-04-10T00:42:10.722Z,69.00
2018-04-10T00:43:07.335Z,69.20
2018-04-10T00:44:06.506Z,69.20
2018-04-10T00:45:06.283Z,69.60
2018-04-10T00:46:06.313Z,69.30
2018-04-10T00:47:05.505Z,69.30
2018-04-10T00:48:05.562Z,69.40
2018-04-10T00:49:05.895Z,69.40
2018-04-10T00:50:06.053Z,69.40
2018-04-10T00:51:06.289Z,69.50
2018-04-10T00:52:06.122Z,69.50
2018-04-10T00:53:05.819Z,69.50
2018-04-10T00:54:05.742Z,69.40
2018-04-10T00:55:07.257Z,69.30
2018-04-10T00:56:08.249Z,70.20
2018-04-10T00:57:09.059Z,70.10
2018-04-10T00:58:08.115Z,70.00
2018-04-10T00:59:05.711Z,70.00
2018-04-10T01:00:05.869Z,70.70
2018-04-10T01:01:09.304Z,70.30
2018-04-10T01:02:06.031Z,70.40
2018-04-10T01:03:05.559Z,70.30
2018-04-10T01:04:06.259Z,70.40
2018-04-10T01:05:09.123Z,70.90
2018-04-10T01:06:05.753Z,70.80
2018-04-10T01:07:08.975Z,71.40
2018-04-10T01:08:05.667Z,71.40
2018-04-10T01:09:06.217Z,71.20
2018-04-10T01:10:09.899Z,71.40
2018-04-10T01:11:06.375Z,71.40
2018-04-10T01:12:06.750Z,71.40
2018-04-10T01:13:07.973Z,71.70
2018-04-10T01:14:06.577Z,71.60
2018-04-10T01:15:09.567Z,73.10
2018-04-10T01:16:11.164Z,73.10
2018-04-10T01:17:05.619Z,72.70
2018-04-10T01:18:06.464Z,72.60
2018-04-10T01:19:05.601Z,72.50
2018-04-10T01:20:09.176Z,72.40
2018-04-10T01:21:08.975Z,72.40
2018-04-10T01:22:06.623Z,72.50
2018-04-10T01:23:16.151Z,72.20
2018-04-10T01:24:10.977Z,72.10
2018-04-10T01:25:06.643Z,72.10
2018-04-10T01:26:08.345Z,71.90
2018-04-10T01:27:05.819Z,71.90
2018-04-10T01:28:06.642Z,71.80
2018-04-10T01:29:08.769Z,71.70
2018-04-10T01:30:07.307Z,71.70
2018-04-10T01:31:06.108Z,71.80
2018-04-10T01:32:06.208Z,71.90
2018-04-10T01:33:11.947Z,72.10
2018-04-10T01:34:05.532Z,72.10
2018-04-10T01:35:06.436Z,72.10
2018-04-10T01:36:06.936Z,72.30
2018-04-10T01:37:05.739Z,73.00
2018-04-10T01:38:06.562Z,72.80
2018-04-10T01:39:08.931Z,72.70
2018-04-10T01:40:08.956Z,72.60
2018-04-10T01:41:08.621Z,72.60
2018-04-10T01:42:13.731Z,72.40
2018-04-10T01:43:11.148Z,72.40
2018-04-10T01:44:09.447Z,72.50
2018-04-10T01:45:06.033Z,72.50
2018-04-10T01:46:05.848Z,72.20
2018-04-10T01:47:06.169Z,72.30
2018-04-10T01:48:05.727Z,72.20
2018-04-10T01:49:08.840Z,72.10
2018-04-10T01:50:11.328Z,72.20
2018-04-10T01:51:05.708Z,72.10
2018-04-10T01:52:08.520Z,71.80
2018-04-10T01:53:06.034Z,71.90
2018-04-10T01:54:08.200Z,71.70
2018-04-10T01:55:05.754Z,71.70
2018-04-10T01:56:05.925Z,71.70
2018-04-10T01:57:06.221Z,71.70
2018-04-10T01:58:05.545Z,71.70
2018-04-10T01:59:05.755Z,71.60
2018-04-10T02:00:11.648Z,71.30
2018-04-10T02:01:08.736Z,71.20
2018-04-10T02:02:09.525Z,71.10
2018-04-10T02:03:09.463Z,71.00
2018-04-10T02:04:10.262Z,70.90
2018-04-10T02:05:06.635Z,70.90
2018-04-10T02:06:05.934Z,70.90
2018-04-10T02:07:13.076Z,71.10
2018-04-10T02:08:08.158Z,71.20
2018-04-10T02:09:06.370Z,71.20
2018-04-10T02:10:06.085Z,71.10
2018-04-10T02:11:08.609Z,71.20
2018-04-10T02:12:06.347Z,71.20
2018-04-10T02:13:10.019Z,71.30
2018-04-10T02:14:05.685Z,71.30
2018-04-10T02:15:11.130Z,71.90
2018-04-10T02:16:05.656Z,71.90
2018-04-10T02:17:05.861Z,71.80
2018-04-10T02:18:10.658Z,72.40
2018-04-10T02:19:06.115Z,72.30
2018-04-10T02:20:05.881Z,72.20
2018-04-10T02:21:06.467Z,72.20
2018-04-10T02:22:06.366Z,72.40
2018-04-10T02:23:11.248Z,72.50
2018-04-10T02:24:06.547Z,72.60
2018-04-10T02:25:08.867Z,72.80
2018-04-10T02:26:06.320Z,72.80
2018-04-10T02:27:05.912Z,72.90
2018-04-10T02:28:08.764Z,73.10
2018-04-10T02:29:06.743Z,73.10
2018-04-10T02:30:06.303Z,73.00
2018-04-10T02:31:05.424Z,73.00
2018-04-10T02:32:06.184Z,73.10
2018-04-10T02:33:05.578Z,73.10
2018-04-10T02:34:11.521Z,73.00
2018-04-10T02:35:07.139Z,72.90
2018-04-10T02:36:05.898Z,72.90
2018-04-10T02:37:06.063Z,72.90
2018-04-10T02:38:06.517Z,73.50
2018-04-10T02:39:05.929Z,75.10
2018-04-10T02:40:05.954Z,74.70
2018-04-10T02:41:08.334Z,74.40
2018-04-10T02:42:06.930Z,74.40
2018-04-10T02:43:08.388Z,74.30
2018-04-10T02:44:06.158Z,74.40
2018-04-10T02:45:09.876Z,74.80
2018-04-10T02:46:05.817Z,74.70
2018-04-10T02:47:09.126Z,74.90
2018-04-10T02:48:06.111Z,74.90
2018-04-10T02:49:09.669Z,75.20
2018-04-10T02:50:11.223Z,75.20
2018-04-10T02:51:09.603Z,75.30
2018-04-10T02:52:06.525Z,75.30
2018-04-10T02:53:08.791Z,75.30
2018-04-10T02:54:06.484Z,75.30
2018-04-10T02:55:06.223Z,75.30
2018-04-10T02:56:05.979Z,75.50
2018-04-10T02:57:08.767Z,75.70
2018-04-10T02:58:09.581Z,75.80
2018-04-10T02:59:06.133Z,75.80
2018-04-10T03:00:05.783Z,75.70
2018-04-10T03:01:05.948Z,75.50
2018-04-10T03:02:06.615Z,75.80
2018-04-10T03:03:06.173Z,75.80
2018-04-10T03:04:09.106Z,75.80
2018-04-10T03:05:10.578Z,75.80
2018-04-10T03:06:06.176Z,75.80
2018-04-10T03:07:11.452Z,75.70
2018-04-10T03:08:06.089Z,75.70
2018-04-10T03:09:09.801Z,75.70
2018-04-10T03:10:11.257Z,75.60
2018-04-10T03:11:08.381Z,75.60
2018-04-10T03:12:05.819Z,75.60
2018-04-10T03:13:06.522Z,75.60
2018-04-10T03:14:11.153Z,75.50
2018-04-10T03:15:05.780Z,75.50
2018-04-10T03:16:06.320Z,75.60
2018-04-10T03:17:10.812Z,75.60
2018-04-10T03:18:05.667Z,75.60
2018-04-10T03:19:06.259Z,75.50
2018-04-10T03:20:10.924Z,75.50
2018-04-10T03:21:06.419Z,75.50
2018-04-10T03:22:06.122Z,75.60
2018-04-10T03:23:10.569Z,75.60
2018-04-10T03:24:06.202Z,75.60
2018-04-10T03:25:06.491Z,75.80
2018-04-10T03:26:06.316Z,75.80
2018-04-10T03:27:05.615Z,75.80
2018-04-10T03:28:05.806Z,75.80
2018-04-10T03:29:05.410Z,76.60
2018-04-10T03:30:05.538Z,76.40
2018-04-10T03:31:08.673Z,76.60
2018-04-10T03:32:05.771Z,76.60
2018-04-10T03:33:08.445Z,76.50
2018-04-10T03:34:09.504Z,76.50
2018-04-10T03:35:06.098Z,76.50
2018-04-10T03:36:06.506Z,76.60
2018-04-10T03:37:05.481Z,76.60
2018-04-10T03:38:09.238Z,76.60
2018-04-10T03:39:11.206Z,76.70
2018-04-10T03:40:05.506Z,76.70
2018-04-10T03:41:06.891Z,77.30
2018-04-10T03:42:06.712Z,77.20
2018-04-10T03:43:06.432Z,77.50
2018-04-10T03:44:08.789Z,77.90
2018-04-10T03:45:12.334Z,78.00
2018-04-10T03:46:05.876Z,78.00
2018-04-10T03:47:06.400Z,78.30
2018-04-10T03:48:06.054Z,78.60
2018-04-10T03:49:05.827Z,79.70
2018-04-10T03:50:06.271Z,80.00
2018-04-10T03:51:06.156Z,79.80
2018-04-10T03:52:05.586Z,80.00
2018-04-10T03:53:05.606Z,80.10
2018-04-10T03:54:06.163Z,80.60
2018-04-10T03:55:08.475Z,80.80
2018-04-10T03:56:06.180Z,80.80
2018-04-10T03:57:06.510Z,80.80
2018-04-10T03:58:06.557Z,80.60
2018-04-10T03:59:12.440Z,80.40
2018-04-10T04:00:06.319Z,80.30
2018-04-10T04:01:05.942Z,80.10
2018-04-10T04:02:06.042Z,79.90
2018-04-10T04:03:09.743Z,79.60
2018-04-10T04:04:06.456Z,79.50
2018-04-10T04:05:06.247Z,79.40
2018-04-10T04:06:10.126Z,79.40
2018-04-10T04:07:06.525Z,79.40
2018-04-10T04:08:06.201Z,79.40
2018-04-10T04:09:06.244Z,79.30
2018-04-10T04:10:09.378Z,79.10
2018-04-10T04:11:06.120Z,79.10
2018-04-10T04:12:13.779Z,79.20
2018-04-10T04:13:11.333Z,79.10
2018-04-10T04:14:05.922Z,78.90
2018-04-10T04:15:08.987Z,78.70
2018-04-10T04:16:08.280Z,78.70
2018-04-10T04:17:11.077Z,78.60
2018-04-10T04:18:06.639Z,78.60
2018-04-10T04:19:08.937Z,78.40
2018-04-10T04:20:05.697Z,78.60
2018-04-10T04:21:05.755Z,78.40
2018-04-10T04:22:05.561Z,78.60
2018-04-10T04:23:10.677Z,78.60
2018-04-10T04:24:06.572Z,78.70
2018-04-10T04:25:08.729Z,78.70
2018-04-10T04:26:11.300Z,78.70
2018-04-10T04:27:05.739Z,78.90
2018-04-10T04:28:11.010Z,78.90
2018-04-10T04:29:10.731Z,78.90
2018-04-10T04:30:05.545Z,78.90
2018-04-10T04:31:08.626Z,78.90
2018-04-10T04:32:06.395Z,78.90
2018-04-10T04:33:05.847Z,79.10
2018-04-10T04:34:06.384Z,79.10
2018-04-10T04:35:08.372Z,79.10
2018-04-10T04:36:05.968Z,78.90
2018-04-10T04:37:12.238Z,78.80
2018-04-10T04:38:10.938Z,78.90
2018-04-10T04:39:06.148Z,78.90
2018-04-10T04:40:05.674Z,78.90
2018-04-10T04:41:06.610Z,78.70
2018-04-10T04:42:05.626Z,78.80
2018-04-10T04:43:06.435Z,78.80
2018-04-10T04:44:11.404Z,78.60
2018-04-10T04:45:05.893Z,78.60
2018-04-10T04:46:06.466Z,78.60
2018-04-10T04:47:05.672Z,78.60
2018-04-10T04:48:08.919Z,78.70
2018-04-10T04:49:06.433Z,78.60
2018-04-10T04:50:09.064Z,78.40
2018-04-10T04:51:05.519Z,78.30
2018-04-10T04:52:08.286Z,78.30
2018-04-10T04:53:05.795Z,78.30
2018-04-10T04:54:09.087Z,78.20
2018-04-10T04:55:05.774Z,78.20
2018-04-10T04:56:08.821Z,78.10
2018-04-10T04:57:11.454Z,78.00
2018-04-10T04:58:08.273Z,77.80
2018-04-10T04:59:06.326Z,77.90
2018-04-10T05:00:09.214Z,78.00
2018-04-10T05:01:05.869Z,78.10
2018-04-10T05:02:05.949Z,78.00
2018-04-10T05:03:06.046Z,78.00
2018-04-10T05:04:05.745Z,78.00
2018-04-10T05:05:05.932Z,77.90
2018-04-10T05:06:06.424Z,78.20
2018-04-10T05:07:06.019Z,78.10
2018-04-10T05:08:05.892Z,78.00
2018-04-10T05:09:06.284Z,77.90
2018-04-10T05:10:08.924Z,78.00
2018-04-10T05:11:06.613Z,78.00
2018-04-10T05:12:08.952Z,77.80
2018-04-10T05:13:06.572Z,77.80
2018-04-10T05:14:06.104Z,77.80
2018-04-10T05:15:06.515Z,77.70
2018-04-10T05:16:09.426Z,78.00
2018-04-10T05:17:06.171Z,78.00
2018-04-10T05:18:06.633Z,77.90
2018-04-10T05:19:06.451Z,78.10
2018-04-10T05:20:13.903Z,78.30
2018-04-10T05:21:07.255Z,78.30
2018-04-10T05:22:06.215Z,78.30
2018-04-10T05:23:08.901Z,78.30
2018-04-10T05:24:06.631Z,78.30
2018-04-10T05:25:09.240Z,78.30
2018-04-10T05:26:08.314Z,78.40
2018-04-10T05:27:11.346Z,78.10
2018-04-10T05:28:08.929Z,77.90
2018-04-10T05:29:14.093Z,77.80
2018-04-10T05:30:10.851Z,77.60
2018-04-10T05:31:05.624Z,77.60
2018-04-10T05:32:11.189Z,77.20
2018-04-10T05:33:10.821Z,77.10
2018-04-10T05:34:05.710Z,77.10
2018-04-10T05:35:09.157Z,76.90
2018-04-10T05:36:05.896Z,76.90
2018-04-10T05:37:06.485Z,76.60
2018-04-10T05:38:13.232Z,75.40
2018-04-10T05:39:08.256Z,75.20
2018-04-10T05:40:05.940Z,75.40
2018-04-10T05:41:06.059Z,75.10
2018-04-10T05:42:09.059Z,74.70
2018-04-10T05:43:08.172Z,74.50
2018-04-10T05:44:08.405Z,74.50
2018-04-10T05:45:05.857Z,74.50
2018-04-10T05:46:05.904Z,74.30
2018-04-10T05:47:06.072Z,73.80
2018-04-10T05:48:08.186Z,73.20
2018-04-10T05:49:15.969Z,72.70
2018-04-10T05:50:09.258Z,72.30
2018-04-10T05:51:05.790Z,72.30
2018-04-10T05:52:06.423Z,72.10
2018-04-10T05:53:06.430Z,71.70
2018-04-10T05:54:10.791Z,71.00
2018-04-10T05:55:06.477Z,71.10
2018-04-10T05:56:06.118Z,70.70
2018-04-10T05:57:08.945Z,70.10
2018-04-10T05:58:06.430Z,70.10
2018-04-10T05:59:10.777Z,69.90
2018-04-10T06:00:09.785Z,68.60
2018-04-10T06:01:06.396Z,68.50
2018-04-10T06:02:06.534Z,68.20
2018-04-10T06:03:06.030Z,68.10
2018-04-10T06:04:06.472Z,68.00
2018-04-10T06:05:09.756Z,67.60
2018-04-10T06:06:09.394Z,67.50
2018-04-10T06:07:10.935Z,67.50
2018-04-10T06:08:10.048Z,67.00
2018-04-10T06:09:10.486Z,66.60
2018-04-10T06:10:05.997Z,66.60
2018-04-10T06:11:05.813Z,66.40
2018-04-10T06:12:08.054Z,65.70
2018-04-10T06:13:12.029Z,65.10
2018-04-10T06:14:05.963Z,65.00
2018-04-10T06:15:11.070Z,64.40
2018-04-10T06:16:06.480Z,64.40
2018-04-10T06:17:05.873Z,63.70
2018-04-10T06:18:09.295Z,63.00
2018-04-10T06:19:05.939Z,63.00
2018-04-10T06:20:11.633Z,61.80
2018-04-10T06:21:06.053Z,61.90
2018-04-10T06:22:09.178Z,61.70
2018-04-10T06:23:05.654Z,61.70
2018-04-10T06:24:05.780Z,61.50
2018-04-10T06:25:10.126Z,60.90
2018-04-10T06:26:05.792Z,60.90
2018-04-10T06:27:09.313Z,59.90
2018-04-10T06:28:06.067Z,60.10
2018-04-10T06:29:06.346Z,60.00
2018-04-10T06:30:05.678Z,59.80
2018-04-10T06:31:11.797Z,59.60
2018-04-10T06:32:14.025Z,58.70
2018-04-10T06:33:08.458Z,58.60
2018-04-10T06:34:09.529Z,58.10
2018-04-10T06:35:09.871Z,57.80
2018-04-10T06:36:06.382Z,57.80
2018-04-10T06:37:06.283Z,57.90
2018-04-10T06:38:08.298Z,57.40
2018-04-10T06:39:08.477Z,57.60
2018-04-10T06:40:08.730Z,57.30
2018-04-10T06:41:09.150Z,57.10
2018-04-10T06:42:08.832Z,56.80
2018-04-10T06:43:06.384Z,56.80
2018-04-10T06:44:11.033Z,56.30
2018-04-10T06:45:11.508Z,56.00
2018-04-10T06:46:05.957Z,56.00
2018-04-10T06:47:11.417Z,55.70
2018-04-10T06:48:05.818Z,55.60
2018-04-10T06:49:06.434Z,55.60
2018-04-10T06:50:07.084Z,55.60
2018-04-10T06:51:11.081Z,55.00
2018-04-10T06:52:08.143Z,55.30
2018-04-10T06:53:05.669Z,55.20
2018-04-10T06:54:05.908Z,55.10
2018-04-10T06:55:05.904Z,55.00
2018-04-10T06:56:05.864Z,54.70
2018-04-10T06:57:06.253Z,54.70
2018-04-10T06:58:05.931Z,54.50
2018-04-10T06:59:05.872Z,54.30
2018-04-10T07:00:06.270Z,53.80
2018-04-10T07:01:05.631Z,53.60
2018-04-10T07:02:06.055Z,53.50
2018-04-10T07:03:09.899Z,52.80
2018-04-10T07:04:09.199Z,52.90
2018-04-10T07:05:12.451Z,52.90
2018-04-10T07:06:05.970Z,52.90
2018-04-10T07:07:06.143Z,53.00
2018-04-10T07:08:05.928Z,52.80
2018-04-10T07:09:06.114Z,52.20
2018-04-10T07:10:06.644Z,52.40
2018-04-10T07:11:11.507Z,52.00
2018-04-10T07:12:06.484Z,52.00
2018-04-10T07:13:05.665Z,52.00
2018-04-10T07:14:08.864Z,52.10
2018-04-10T07:15:06.450Z,52.00
2018-04-10T07:16:05.714Z,52.00
2018-04-10T07:17:10.598Z,51.60
2018-04-10T07:18:09.058Z,51.20
2018-04-10T07:19:05.941Z,51.30
2018-04-10T07:20:06.197Z,50.90
2018-04-10T07:21:05.538Z,51.00
2018-04-10T07:22:09.057Z,51.00
2018-04-10T07:23:10.651Z,51.10
2018-04-10T07:24:06.131Z,51.10
2018-04-10T07:25:06.006Z,51.00
2018-04-10T07:26:06.028Z,50.90
2018-04-10T07:27:05.898Z,51.00
2018-04-10T07:28:05.593Z,50.90
2018-04-10T07:29:08.332Z,50.10
2018-04-10T07:30:08.477Z,50.20
2018-04-10T07:31:05.829Z,50.20
2018-04-10T07:32:11.540Z,50.40
2018-04-10T07:33:13.659Z,50.40
2018-04-10T07:34:06.445Z,50.40
2018-04-10T07:35:06.477Z,50.40
2018-04-10T07:36:11.588Z,50.20
2018-04-10T07:37:06.103Z,50.20
2018-04-10T07:38:05.742Z,50.40
2018-04-10T07:39:09.620Z,50.10
2018-04-10T07:40:06.489Z,50.10
2018-04-10T07:41:06.520Z,50.20
2018-04-10T07:42:05.719Z,50.20
2018-04-10T07:43:10.536Z,50.40
2018-04-10T07:44:05.907Z,50.20
2018-04-10T07:45:09.239Z,50.30
2018-04-10T07:46:09.158Z,50.20
2018-04-10T07:47:06.029Z,50.10
2018-04-10T07:48:06.318Z,50.20
2018-04-10T07:49:11.482Z,49.90
2018-04-10T07:50:05.840Z,49.70
2018-04-10T07:51:05.828Z,49.60
2018-04-10T07:52:06.030Z,49.80
2018-04-10T07:53:06.052Z,50.00
2018-04-10T07:54:06.454Z,49.10
2018-04-10T07:55:05.632Z,49.60
2018-04-10T07:56:05.769Z,49.60
2018-04-10T07:57:16.632Z,50.00
2018-04-10T07:58:09.992Z,49.70
2018-04-10T07:59:10.839Z,49.40
2018-04-10T08:00:10.646Z,49.40
2018-04-10T08:01:11.175Z,49.30
2018-04-10T08:02:08.766Z,49.40
2018-04-10T08:03:11.200Z,49.40
2018-04-10T08:04:05.515Z,49.40
2018-04-10T08:05:11.537Z,49.30
2018-04-10T08:06:06.059Z,49.20
2018-04-10T08:07:06.325Z,49.30
2018-04-10T08:08:06.294Z,49.30
2018-04-10T08:09:05.824Z,49.50
2018-04-10T08:10:08.765Z,49.80
2018-04-10T08:11:16.735Z,49.70
2018-04-10T08:12:06.542Z,49.70
2018-04-10T08:13:06.193Z,49.60
2018-04-10T08:14:05.983Z,49.50
2018-04-10T08:15:06.389Z,49.70
2018-04-10T08:16:05.791Z,49.40
2018-04-10T08:17:08.601Z,49.60
2018-04-10T08:18:09.514Z,49.80
2018-04-10T08:19:10.971Z,49.80
2018-04-10T08:20:08.715Z,49.70
2018-04-10T08:21:06.250Z,49.80
2018-04-10T08:22:06.386Z,49.50
2018-04-10T08:23:08.552Z,49.40
2018-04-10T08:24:06.689Z,49.50
2018-04-10T08:25:06.056Z,49.40
2018-04-10T08:26:05.534Z,49.20
2018-04-10T08:27:08.896Z,48.90
2018-04-10T08:28:06.170Z,48.80
2018-04-10T08:29:09.132Z,48.30
2018-04-10T08:30:08.600Z,48.70
2018-04-10T08:31:07.085Z,48.70
2018-04-10T08:32:08.097Z,47.40
2018-04-10T08:33:05.780Z,47.40
2018-04-10T08:34:09.866Z,47.10
2018-04-10T08:35:10.730Z,47.10
2018-04-10T08:36:05.664Z,47.10
2018-04-10T08:37:10.932Z,47.40
2018-04-10T08:38:05.859Z,47.50
2018-04-10T08:39:07.004Z,47.40
2018-04-10T08:40:05.820Z,47.50
2018-04-10T08:41:05.903Z,47.70
2018-04-10T08:42:06.479Z,48.10
2018-04-10T08:43:06.403Z,47.90
2018-04-10T08:44:06.050Z,47.90
2018-04-10T08:45:09.667Z,48.00
2018-04-10T08:46:06.302Z,48.00
2018-04-10T08:47:05.935Z,47.80
2018-04-10T08:48:05.552Z,48.00
2018-04-10T08:49:10.927Z,47.70
2018-04-10T08:50:05.701Z,47.70
2018-04-10T08:51:08.680Z,47.80
2018-04-10T08:52:08.789Z,47.70
2018-04-10T08:53:09.523Z,47.90
2018-04-10T08:54:06.050Z,47.90
2018-04-10T08:55:09.937Z,48.10
2018-04-10T08:56:06.408Z,48.00
2018-04-10T08:57:11.322Z,47.90
2018-04-10T08:58:08.666Z,47.70
2018-04-10T08:59:06.124Z,47.70
2018-04-10T09:00:06.228Z,47.30
2018-04-10T09:01:06.084Z,47.20
2018-04-10T09:02:05.824Z,47.40
2018-04-10T09:03:11.713Z,47.10
2018-04-10T09:04:08.501Z,46.70
2018-04-10T09:05:08.998Z,47.10
2018-04-10T09:06:09.167Z,47.10
2018-04-10T09:07:05.751Z,47.10
2018-04-10T09:08:05.527Z,47.00
2018-04-10T09:09:09.657Z,46.90
2018-04-10T09:10:08.742Z,46.40
2018-04-10T09:11:06.425Z,46.40
2018-04-10T09:12:08.265Z,45.80
2018-04-10T09:13:09.199Z,46.00
2018-04-10T09:14:05.969Z,46.00
2018-04-10T09:15:11.166Z,46.30
2018-04-10T09:16:11.049Z,46.40
2018-04-10T09:17:05.846Z,46.40
2018-04-10T09:18:09.071Z,46.20
2018-04-10T09:19:06.179Z,46.20
2018-04-10T09:20:11.074Z,45.50
2018-04-10T09:21:05.507Z,45.30
2018-04-10T09:22:08.934Z,45.60
2018-04-10T09:23:06.551Z,45.50
2018-04-10T09:24:06.486Z,45.50
2018-04-10T09:25:11.508Z,45.20
2018-04-10T09:26:10.964Z,45.30
2018-04-10T09:27:12.618Z,45.40
2018-04-10T09:28:10.270Z,45.40
2018-04-10T09:29:10.967Z,45.40
2018-04-10T09:30:06.470Z,45.80
2018-04-10T09:31:05.929Z,45.50
2018-04-10T09:32:06.699Z,45.20
2018-04-10T09:33:06.566Z,44.90
2018-04-10T09:34:06.291Z,44.60
2018-04-10T09:35:06.205Z,44.60
2018-04-10T09:36:06.694Z,45.00
2018-04-10T09:37:06.059Z,44.90
2018-04-10T09:38:05.900Z,45.00
2018-04-10T09:39:06.480Z,44.20
2018-04-10T09:40:13.215Z,44.20
2018-04-10T09:41:10.817Z,43.80
2018-04-10T09:42:06.487Z,43.80
2018-04-10T09:43:08.953Z,43.00
2018-04-10T09:44:09.063Z,42.80
2018-04-10T09:45:05.717Z,42.80
2018-04-10T09:46:06.172Z,42.50
2018-04-10T09:47:11.255Z,40.70
2018-04-10T09:48:09.938Z,41.00
2018-04-10T09:49:06.489Z,41.00
2018-04-10T09:50:08.782Z,41.80
2018-04-10T09:51:09.706Z,42.20
2018-04-10T09:52:11.388Z,42.20
2018-04-10T09:53:10.585Z,42.20
2018-04-10T09:54:06.085Z,42.20
2018-04-10T09:55:11.485Z,41.50
2018-04-10T09:56:13.400Z,39.60
2018-04-10T09:57:05.959Z,39.60
2018-04-10T09:58:06.005Z,40.30
2018-04-10T09:59:08.314Z,39.70
2018-04-10T10:00:06.177Z,39.40
2018-04-10T10:01:06.177Z,38.70
2018-04-10T10:02:05.798Z,38.60
2018-04-10T10:03:05.649Z,36.70
2018-04-10T10:04:08.201Z,32.80
2018-04-10T10:05:09.881Z,32.50
2018-04-10T10:06:06.334Z,32.50
2018-04-10T10:07:05.764Z,31.00
2018-04-10T10:08:08.114Z,29.80
2018-04-10T10:09:09.990Z,29.90
2018-04-10T10:10:06.753Z,29.90
2018-04-10T10:11:10.586Z,30.70
2018-04-10T10:12:08.834Z,28.70
2018-04-10T10:13:06.476Z,28.70
2018-04-10T10:14:08.537Z,29.00
2018-04-10T10:15:13.538Z,28.80
2018-04-10T10:16:06.373Z,28.90
2018-04-10T10:17:16.472Z,29.50
2018-04-10T10:18:10.957Z,29.50
2018-04-10T10:19:05.571Z,29.10
2018-04-10T10:20:06.439Z,27.90
2018-04-10T10:21:11.323Z,27.20
2018-04-10T10:22:05.994Z,26.80
2018-04-10T10:23:05.731Z,26.70
2018-04-10T10:24:08.746Z,27.30
2018-04-10T10:25:09.172Z,27.10
2018-04-10T10:26:05.913Z,27.10
2018-04-10T10:27:10.985Z,26.30
2018-04-10T10:28:06.605Z,26.30
2018-04-10T10:29:06.294Z,26.30
2018-04-10T10:30:06.453Z,26.70
2018-04-10T10:31:08.822Z,26.30
2018-04-10T10:32:06.297Z,26.30
2018-04-10T10:33:10.798Z,26.00
2018-04-10T10:34:08.897Z,25.70
2018-04-10T10:35:06.581Z,25.70
2018-04-10T10:36:11.332Z,26.20
2018-04-10T10:37:06.102Z,26.00
2018-04-10T10:38:06.144Z,26.40
2018-04-10T10:39:06.495Z,26.70
2018-04-10T10:40:06.385Z,26.70
2018-04-10T10:41:05.617Z,26.40
2018-04-10T10:42:06.689Z,26.50
2018-04-10T10:43:06.372Z,26.30
2018-04-10T10:44:12.050Z,27.00
2018-04-10T10:45:05.741Z,27.00
2018-04-10T10:46:06.338Z,27.40
2018-04-10T10:47:05.543Z,27.60
2018-04-10T10:48:06.225Z,27.30
2018-04-10T10:49:05.867Z,27.70
2018-04-10T10:50:06.492Z,28.20
2018-04-10T10:51:06.263Z,28.20
2018-04-10T10:52:11.397Z,28.40
2018-04-10T10:53:11.385Z,28.30
2018-04-10T10:54:06.510Z,28.60
2018-04-10T10:55:10.777Z,29.10
2018-04-10T10:56:08.764Z,29.20
2018-04-10T10:57:11.483Z,29.30
2018-04-10T10:58:05.781Z,29.30
2018-04-10T10:59:08.096Z,29.80
2018-04-10T11:00:08.140Z,29.60
2018-04-10T11:01:05.747Z,29.60
2018-04-10T11:02:06.634Z,29.90
2018-04-10T11:03:05.744Z,29.40
2018-04-10T11:04:05.754Z,29.70
2018-04-10T11:05:06.225Z,29.50
2018-04-10T11:06:06.389Z,29.60
2018-04-10T11:07:05.792Z,29.90
2018-04-10T11:08:05.585Z,30.20
2018-04-10T11:09:06.459Z,30.20
2018-04-10T11:10:09.288Z,30.10
2018-04-10T11:11:05.819Z,30.10
2018-04-10T11:12:06.229Z,30.10
2018-04-10T11:13:06.305Z,29.80
2018-04-10T11:14:05.707Z,29.90
2018-04-10T11:15:06.348Z,29.80
2018-04-10T11:16:05.801Z,29.80
2018-04-10T11:17:05.866Z,29.80
2018-04-10T11:18:10.442Z,28.90
2018-04-10T11:19:06.098Z,28.90
2018-04-10T11:20:06.433Z,28.60
2018-04-10T11:21:08.568Z,28.70
2018-04-10T11:22:07.193Z,28.80
2018-04-10T11:23:06.273Z,28.70
2018-04-10T11:24:10.951Z,29.10
2018-04-10T11:25:05.731Z,29.10
2018-04-10T11:26:09.066Z,28.40
2018-04-10T11:27:09.997Z,28.60
2018-04-10T11:28:11.512Z,28.60
2018-04-10T11:29:06.122Z,28.10
2018-04-10T11:30:06.570Z,27.80
2018-04-10T11:31:05.464Z,27.90
2018-04-10T11:32:09.667Z,28.30
2018-04-10T11:33:09.656Z,28.30
2018-04-10T11:34:06.558Z,28.30
2018-04-10T11:35:05.893Z,28.00
2018-04-10T11:36:06.347Z,28.10
2018-04-10T11:37:09.091Z,28.30
2018-04-10T11:38:06.164Z,28.30
2018-04-10T11:39:07.418Z,28.20
2018-04-10T11:40:11.061Z,27.70
2018-04-10T11:41:11.446Z,27.70
2018-04-10T11:42:08.505Z,27.90
2018-04-10T11:43:05.978Z,27.90
2018-04-10T11:44:05.874Z,27.50
2018-04-10T11:45:06.381Z,27.80
2018-04-10T11:46:10.819Z,27.50
2018-04-10T11:47:06.498Z,27.40
2018-04-10T11:48:11.232Z,27.60
2018-04-10T11:49:06.258Z,27.70
2018-04-10T11:50:05.866Z,27.50
2018-04-10T11:51:06.739Z,27.90
2018-04-10T11:52:11.312Z,27.80
2018-04-10T11:53:06.562Z,27.80
2018-04-10T11:54:11.374Z,27.90
2018-04-10T11:55:10.192Z,28.20
2018-04-10T11:56:06.710Z,28.20
2018-04-10T11:57:15.491Z,27.20
2018-04-10T11:58:09.008Z,27.30
2018-04-10T11:59:05.621Z,27.30
2018-04-10T12:00:09.099Z,27.80
2018-04-10T12:01:05.738Z,27.80
2018-04-10T12:02:06.089Z,27.90
2018-04-10T12:03:05.819Z,27.80
2018-04-10T12:04:10.976Z,27.80
2018-04-10T12:05:06.666Z,27.70
2018-04-10T12:06:10.284Z,27.80
2018-04-10T12:07:05.673Z,27.80
2018-04-10T12:08:09.050Z,28.40
2018-04-10T12:09:05.684Z,28.40
2018-04-10T12:10:05.935Z,28.70
2018-04-10T12:11:05.715Z,28.50
2018-04-10T12:12:06.136Z,28.70
2018-04-10T12:13:10.875Z,28.60
2018-04-10T12:14:11.188Z,28.80
2018-04-10T12:15:05.711Z,28.80
2018-04-10T12:16:05.925Z,28.80
2018-04-10T12:17:11.021Z,28.40
2018-04-10T12:18:05.679Z,28.40
2018-04-10T12:19:08.940Z,28.00
2018-04-10T12:20:06.503Z,28.00
2018-04-10T12:21:10.722Z,28.10
2018-04-10T12:22:06.285Z,27.70
2018-04-10T12:23:06.234Z,27.90
2018-04-10T12:24:06.074Z,28.20
2018-04-10T12:25:05.703Z,28.20
2018-04-10T12:26:06.384Z,28.00
2018-04-10T12:27:05.976Z,27.90
2018-04-10T12:28:09.104Z,28.40
2018-04-10T12:29:08.195Z,28.60
2018-04-10T12:30:10.680Z,28.60
2018-04-10T12:31:06.186Z,28.60
2018-04-10T12:32:11.056Z,28.40
2018-04-10T12:33:08.404Z,28.30
2018-04-10T12:34:06.090Z,28.30
2018-04-10T12:35:06.361Z,27.70
2018-04-10T12:36:08.752Z,27.30
2018-04-10T12:37:09.323Z,27.70
2018-04-10T12:38:08.687Z,27.50
2018-04-10T12:39:06.413Z,27.50
2018-04-10T12:40:06.059Z,28.00
2018-04-10T12:41:10.519Z,28.30
2018-04-10T12:42:06.097Z,28.20
2018-04-10T12:43:11.434Z,28.20
2018-04-10T12:44:08.739Z,28.40
2018-04-10T12:45:06.189Z,28.40
2018-04-10T12:46:11.350Z,28.50
2018-04-10T12:47:06.081Z,28.50
2018-04-10T12:48:05.678Z,29.10
2018-04-10T12:49:05.618Z,29.10
2018-04-10T12:50:05.611Z,29.10
2018-04-10T12:51:06.575Z,29.10
2018-04-10T12:52:06.150Z,29.10